ADDS METAR Data INFO
IDs: Format: Raw Decoded Include TAF

Data at: 1245 UTC 19 Oct 2017

KOBE 191235Z AUTO 00000KT 10SM CLR 23/22 A3004 RMK AO2
KOBE 191215Z AUTO 00000KT 10SM CLR 22/21 A3004 RMK AO2
KOBE 191155Z AUTO 00000KT 7SM CLR 21/21 A3004 RMK AO2
KOBE 191135Z AUTO 00000KT 10SM CLR 21/21 A3003 RMK AO2
KOBE 191115Z AUTO 35003KT 10SM CLR 21/21 A3003 RMK AO2
KOBE 191055Z AUTO 36004KT 10SM CLR 21/21 A3003 RMK AO2
KOBE 191035Z AUTO 35005KT 10SM CLR 21/21 A3002 RMK AO2
KOBE 191015Z AUTO 34005KT 10SM CLR 21/21 A3002 RMK AO2
KOBE 190955Z AUTO 34005KT 10SM CLR 21/21 A3001 RMK AO2
KOBE 190935Z AUTO 34005KT 10SM CLR 21/21 A3001 RMK AO2
KOBE 190915Z AUTO 35003KT 10SM CLR 21/21 A3000 RMK AO2
KOBE 190855Z AUTO 35003KT 10SM CLR 21/21 A3000 RMK AO2
KOBE 190835Z AUTO 35004KT 10SM CLR 21/21 A3000 RMK AO2
KOBE 190815Z AUTO 34005KT 10SM CLR 21/21 A3001 RMK AO2
KOBE 190755Z AUTO 35004KT 10SM SCT024 SCT030 21/21 A3001 RMK AO2
KOBE 190735Z AUTO 00000KT 10SM SCT024 21/21 A3002 RMK AO2
KOBE 190715Z AUTO 01003KT 10SM SCT045 SCT050 21/21 A3002 RMK AO2
KOBE 190655Z AUTO 36005KT 10SM SCT024 SCT030 BKN045 22/21 A3003 RMK AO2
KOBE 190635Z AUTO 02006KT 10SM SCT024 SCT030 BKN050 21/21 A3004 RMK AO2
KOBE 190615Z AUTO 35004KT 10SM CLR 21/21 A3003 RMK AO2
KOBE 190555Z AUTO 35003KT 10SM CLR 21/21 A3004 RMK AO2
KOBE 190535Z AUTO 01003KT 10SM SCT047 21/21 A3005 RMK AO2
KOBE 190520Z AUTO 00000KT 10SM CLR 21/21 A3005 RMK AO2
KOBE 190455Z AUTO 00000KT 10SM CLR 21/21 A3006 RMK AO2
KOBE 190435Z AUTO 00000KT 10SM CLR 21/21 A3007 RMK AO2
KOBE 190415Z AUTO 00000KT 10SM CLR 21/21 A3006 RMK AO2
KOBE 190355Z AUTO 00000KT 10SM CLR 21/21 A3007 RMK AO2
KOBE 190335Z AUTO 01003KT 10SM CLR 21/21 A3007 RMK AO2
KOBE 190315Z AUTO 36003KT 10SM CLR 22/21 A3007 RMK AO2
KOBE 190255Z AUTO 36003KT 10SM CLR 22/21 A3007 RMK AO2
KOBE 190240Z AUTO 00000KT 10SM CLR 22/21 A3007 RMK AO2
KOBE 190215Z AUTO 01003KT 10SM CLR 22/21 A3007 RMK AO2
KOBE 190155Z AUTO 36003KT 10SM CLR 22/21 A3007 RMK AO2
KOBE 190135Z AUTO 01005KT 10SM SCT026 SCT032 22/21 A3007 RMK AO2
KOBE 190115Z AUTO 36006KT 10SM SCT026 SCT120 22/21 A3007 RMK AO2
KOBE 190055Z AUTO 01005KT 10SM SCT025 22/21 A3007 RMK AO2
KOBE 190035Z AUTO 02005KT 10SM SCT027 SCT120 22/21 A3007 RMK AO2
KOBE 190015Z AUTO 01005KT 10SM SCT027 SCT033 BKN120 22/21 A3006 RMK AO2
KOBE 182355Z AUTO 02007KT 10SM SCT027 SCT036 OVC120 23/21 A3005 RMK AO2
KOBE 182335Z AUTO 01004KT 10SM SCT027 BKN036 OVC120 23/22 A3005 RMK AO2
KOBE 182315Z AUTO 00000KT 10SM SCT027 BKN120 23/21 A3004 RMK AO2
KOBE 182255Z AUTO 03006KT 10SM SCT120 23/21 A3004 RMK AO2
KOBE 182235Z AUTO 03008KT 10SM SCT025 SCT033 SCT043 23/21 A3003 RMK AO2
KOBE 182215Z AUTO 03014G19KT 10SM SCT018 SCT025 BKN033 24/22 A3003 RMK AO2
KOBE 182155Z AUTO 02010KT 10SM SCT023 SCT037 BKN120 25/22 A3003 RMK AO2
KOBE 182135Z AUTO 02009G16KT 10SM SCT023 SCT038 SCT050 25/22 A3003 RMK AO2
KOBE 182115Z AUTO 01011G17KT 10SM SCT028 SCT050 SCT120 25/22 A3002 RMK AO2
KOBE 182055Z AUTO 03014G17KT 10SM SCT026 SCT041 OVC120 27/22 A3002 RMK AO2
KOBE 182035Z AUTO 02013G16KT 10SM BKN027 BKN041 OVC120 25/22 A3002 RMK AO2
KOBE 182015Z AUTO 06005KT 10SM SCT022 BKN029 OVC110 25/22 A3002 RMK AO2
KOBE 181955Z AUTO 08005G16KT 2 1/2SM +RA SCT021 BKN028 BKN042 25/22 A3003 RMK AO2 VIS 1V5 P0011
KOBE 181935Z AUTO 02012KT 10SM SCT019 BKN110 26/22 A3003 RMK AO2
KOBE 181915Z AUTO 03012KT 10SM OVC110 27/23 A3003 RMK AO2
KOBE 181855Z AUTO 03012KT 10SM BKN110 26/22 A3003 RMK AO2
KOBE 181835Z AUTO 02011G16KT 10SM SCT029 SCT034 SCT046 26/22 A3003 RMK AO2
KOBE 181815Z AUTO 06007KT 10SM SCT110 27/22 A3004 RMK AO2
KOBE 181755Z AUTO 04008KT 10SM SCT029 SCT065 BKN110 26/22 A3005 RMK AO2 LTG DSNT SE
KOBE 181735Z AUTO 08007KT 10SM CLR 27/21 A3005 RMK AO2
KOBE 181715Z AUTO 06009KT 10SM SCT033 SCT043 27/20 A3006 RMK AO2
KOBE 181655Z AUTO 08008G14KT 10SM SCT033 28/21 A3006 RMK AO2
KOBE 181635Z AUTO 07008G15KT 035V095 10SM SCT032 SCT043 28/22 A3006 RMK AO2
KOBE 181615Z AUTO 08010G19KT 10SM BKN032 BKN046 28/21 A3007 RMK AO2
KOBE 181555Z AUTO 04010G18KT 10SM SCT030 SCT036 28/21 A3007 RMK AO2
KOBE 181535Z AUTO 05010G20KT 10SM SCT028 28/21 A3007 RMK AO2
KOBE 181515Z AUTO 06010G14KT 10SM SCT025 SCT030 27/21 A3008 RMK AO2
KOBE 181455Z AUTO 04010KT 10SM SCT024 BKN030 27/22 A3007 RMK AO2
KOBE 181435Z AUTO 05008G15KT 10SM SCT022 27/22 A3007 RMK AO2
KOBE 181415Z AUTO 04011G15KT 10SM SCT020 26/21 A3007 RMK AO2
KOBE 181355Z AUTO 05008G14KT 10SM CLR 26/21 A3007 RMK AO2
KOBE 181335Z AUTO 04008KT 10SM CLR 25/21 A3006 RMK AO2
KOBE 181315Z AUTO 04007KT 10SM CLR 25/22 A3006 RMK AO2
KOBE 181255Z AUTO 03008KT 10SM CLR 24/22 A3006 RMK AO2
KOBE 181235Z AUTO 04007KT 10SM CLR 23/21 A3005 RMK AO2
KOBE 181215Z AUTO 05006KT 10SM CLR 23/21 A3004 RMK AO2 LTG DSNT SW
KOBE 181155Z AUTO 06004KT 10SM CLR 22/21 A3005 RMK AO2
KOBE 181135Z AUTO 04005KT 10SM SCT012 22/21 A3004 RMK AO2
KOBE 181115Z AUTO 03006KT 10SM BKN012 22/21 A3003 RMK AO2
KOBE 181055Z AUTO 02007KT 10SM CLR 22/21 A3003 RMK AO2
KOBE 181035Z AUTO 01005KT 10SM SCT024 SCT030 22/21 A3003 RMK AO2
KOBE 181015Z AUTO 36005KT 10SM SCT024 SCT030 22/21 A3002 RMK AO2
KOBE 180955Z AUTO 36005KT 10SM CLR 22/21 A3001 RMK AO2
KOBE 180935Z AUTO 36004KT 10SM CLR 22/21 A3000 RMK AO2
KOBE 180915Z AUTO 36006KT 10SM CLR 22/21 A3000 RMK AO2
KOBE 180855Z AUTO 36004KT 10SM CLR 22/21 A2999 RMK AO2
KOBE 180835Z AUTO 36005KT 10SM CLR 22/21 A3000 RMK AO2
KOBE 180815Z AUTO 36006KT 10SM CLR 22/21 A3000 RMK AO2
KOBE 180755Z AUTO 36003KT 10SM CLR 22/21 A3000 RMK AO2
KOBE 180735Z AUTO 36004KT 10SM CLR 22/21 A3000 RMK AO2
KOBE 180715Z AUTO 36005KT 10SM CLR 22/21 A3001 RMK AO2
KOBE 180655Z AUTO 36004KT 10SM CLR 22/21 A3002 RMK AO2 LTG DSNT W
KOBE 180635Z AUTO 36005KT 10SM CLR 22/21 A3002 RMK AO2
KOBE 180615Z AUTO 36004KT 10SM CLR 22/21 A3002 RMK AO2
KOBE 180555Z AUTO 36005KT 10SM CLR 22/21 A3003 RMK AO2
KOBE 180535Z AUTO 35007KT 10SM SCT019 22/21 A3003 RMK AO2
KOBE 180515Z AUTO 35006KT 10SM SCT019 22/21 A3004 RMK AO2
KOBE 180455Z AUTO 36006KT 10SM CLR 22/21 A3003 RMK AO2
KOBE 180435Z AUTO 35005KT 10SM CLR 22/21 A3004 RMK AO2
KOBE 180415Z AUTO 36003KT 10SM CLR 22/21 A3004 RMK AO2
KOBE 180355Z AUTO 00000KT 10SM CLR 22/21 A3003 RMK AO2
KOBE 180335Z AUTO 36003KT 10SM CLR 22/21 A3005 RMK AO2 LTG DSNT W
KOBE 180315Z AUTO 01005KT 10SM CLR 23/22 A3005 RMK AO2
KOBE 180255Z AUTO 36005KT 10SM CLR 23/21 A3006 RMK AO2
KOBE 180235Z AUTO 36005KT 10SM CLR 23/21 A3004 RMK AO2
KOBE 180215Z AUTO 01007KT 10SM CLR 23/21 A3004 RMK AO2
KOBE 180155Z AUTO 01006KT 10SM CLR 23/21 A3004 RMK AO2
KOBE 180135Z AUTO 02005KT 10SM CLR 23/21 A3004 RMK AO2
KOBE 180115Z AUTO 01005KT 10SM CLR 23/21 A3004 RMK AO2
KOBE 180055Z AUTO 35004KT 10SM SCT024 23/21 A3004 RMK AO2